Time;durP1;ratioP1;P1;durP2;ratioP2;P2;SDS_P1;SDS_P2;PMS_P1;PMS_P2;Temp;Humidity;BMP_temperature;BMP_pressure;BME280_temperature;BME280_humidity;BME280_pressure;Samples;Min_cycle;Max_cycle;Signal;HPM_P1;HPM_P2
2022/06/24 00:00:17;;;;;;;5.60;1.80;;;;;;;16.85;56.32;100176.83;106022;1271;22528;-57
2022/06/24 00:03:07;;;;;;;6.40;2.40;;;;;;;16.80;56.27;100172.73;105970;1271;23924;-60
2022/06/24 00:05:39;;;;;;;8.50;1.90;;;;;;;16.77;56.60;100172.70;105925;1271;24489;-61
2022/06/24 00:08:12;;;;;;;6.20;1.70;;;;;;;16.73;56.68;100176.21;105769;1271;22749;-59
2022/06/24 00:10:44;;;;;;;7.80;2.40;;;;;;;16.71;56.46;100176.78;105878;1271;24433;-58
2022/06/24 00:13:16;;;;;;;7.70;2.20;;;;;;;16.71;56.65;100177.45;106541;1258;22691;-48
2022/06/24 00:15:47;;;;;;;8.00;2.20;;;;;;;16.69;57.15;100171.83;106783;1268;22526;-49
2022/06/24 00:18:20;;;;;;;5.30;1.90;;;;;;;16.68;57.09;100171.67;106592;1269;22676;-50
2022/06/24 00:20:53;;;;;;;5.70;1.90;;;;;;;16.66;57.25;100171.86;106544;1272;24197;-48
2022/06/24 00:23:25;;;;;;;7.20;2.10;;;;;;;16.64;57.26;100170.08;107074;1268;22561;-50
2022/06/24 00:25:56;;;;;;;7.00;2.00;;;;;;;16.62;57.60;100176.70;106840;1268;24329;-51
2022/06/24 00:28:28;;;;;;;13.30;3.10;;;;;;;16.59;57.57;100179.64;106750;1268;22537;-48
2022/06/24 00:31:02;;;;;;;11.70;1.80;;;;;;;16.57;57.78;100180.02;106395;1269;24287;-50
2022/06/24 00:33:37;;;;;;;6.90;1.70;;;;;;;16.54;57.91;100182.08;109884;1268;22665;-51
2022/06/24 00:36:09;;;;;;;9.90;2.10;;;;;;;16.52;57.97;100183.31;109886;1267;22408;-49
2022/06/24 00:38:41;;;;;;;8.70;1.80;;;;;;;16.50;58.01;100178.55;109885;1268;22516;-49
2022/06/24 00:41:14;;;;;;;7.90;1.80;;;;;;;16.49;57.95;100176.96;109823;1268;22216;-52
2022/06/24 00:43:47;;;;;;;5.70;2.00;;;;;;;16.48;58.16;100174.04;107757;1268;24211;-50
2022/06/24 00:46:25;;;;;;;8.70;2.70;;;;;;;16.48;58.26;100176.34;106325;1268;22559;-49
2022/06/24 00:48:59;;;;;;;5.10;1.90;;;;;;;16.45;58.33;100175.84;106400;1271;24022;-51
2022/06/24 00:51:38;;;;;;;7.30;2.20;;;;;;;16.41;58.54;100173.57;106409;1268;26259;-52
2022/06/24 00:54:12;;;;;;;5.50;1.80;;;;;;;16.40;58.65;100166.05;106420;1271;27543;-52
2022/06/24 00:56:46;;;;;;;6.90;2.10;;;;;;;16.37;58.73;100163.34;106491;1271;25366;-50
2022/06/24 00:59:18;;;;;;;9.10;2.30;;;;;;;16.33;59.07;100165.83;106478;1268;25473;-51
2022/06/24 01:01:52;;;;;;;9.00;2.30;;;;;;;16.27;58.80;100158.80;106363;1268;23195;-51
2022/06/24 01:04:34;;;;;;;7.20;2.30;;;;;;;16.22;59.07;100156.89;106565;1268;24306;-50
2022/06/24 01:07:06;;;;;;;8.60;2.20;;;;;;;16.16;59.32;100150.91;106460;1268;22588;-50
2022/06/24 01:09:38;;;;;;;10.40;2.80;;;;;;;16.09;59.48;100149.51;106429;1271;24353;-51
2022/06/24 01:12:11;;;;;;;6.30;2.00;;;;;;;16.05;59.59;100147.02;106817;1268;27446;-51
2022/06/24 01:14:43;;;;;;;9.30;2.20;;;;;;;16.02;59.45;100144.02;106501;1271;22610;-49
2022/06/24 01:17:14;;;;;;;9.10;2.70;;;;;;;15.99;59.52;100142.14;106568;1268;24313;-49
2022/06/24 01:19:46;;;;;;;6.70;2.10;;;;;;;15.96;59.59;100143.33;106707;1268;22583;-51
2022/06/24 01:22:22;;;;;;;8.40;2.80;;;;;;;15.92;59.81;100146.58;106550;1268;25347;-52
2022/06/24 01:24:54;;;;;;;7.20;2.00;;;;;;;15.88;59.69;100142.65;106499;1268;24686;-51
2022/06/24 01:27:26;;;;;;;8.80;2.10;;;;;;;15.85;59.78;100143.22;106554;1268;24247;-52
2022/06/24 01:29:58;;;;;;;7.40;2.00;;;;;;;15.84;59.75;100136.67;106713;1268;22533;-49
2022/06/24 01:32:29;;;;;;;9.20;1.90;;;;;;;15.82;59.68;100135.50;106732;1268;22527;-49
2022/06/24 01:35:03;;;;;;;6.00;1.90;;;;;;;15.79;59.94;100135.52;106419;1268;22564;-49
2022/06/24 01:37:35;;;;;;;7.50;2.10;;;;;;;15.75;59.97;100136.80;106466;1268;22531;-51
2022/06/24 01:40:10;;;;;;;10.90;2.60;;;;;;;15.71;60.13;100138.77;106562;1268;24343;-49
2022/06/24 01:42:41;;;;;;;9.30;2.10;;;;;;;15.67;60.28;100140.12;106589;1268;25104;-53
2022/06/24 01:45:13;;;;;;;6.10;2.10;;;;;;;15.61;60.49;100138.18;106589;1268;24214;-49
2022/06/24 01:47:45;;;;;;;9.30;2.00;;;;;;;15.54;60.52;100142.36;106665;1267;25403;-49
2022/06/24 01:50:19;;;;;;;7.60;1.90;;;;;;;15.50;60.59;100143.70;106644;1268;24740;-51
2022/06/24 01:52:50;;;;;;;6.90;2.00;;;;;;;15.45;60.94;100140.99;106481;1268;23043;-50
2022/06/24 01:55:22;;;;;;;7.00;2.10;;;;;;;15.39;61.03;100144.45;106630;1268;22841;-49
2022/06/24 01:57:53;;;;;;;8.40;2.40;;;;;;;15.33;61.07;100142.88;106620;1268;22857;-49
2022/06/24 02:00:25;;;;;;;9.20;2.20;;;;;;;15.30;61.32;100143.20;106617;1268;22537;-50
2022/06/24 02:02:56;;;;;;;12.90;2.50;;;;;;;15.26;61.37;100139.73;106632;1268;22592;-51
2022/06/24 02:05:29;;;;;;;5.50;2.00;;;;;;;15.22;61.33;100139.73;106766;1268;22523;-50
2022/06/24 02:08:01;;;;;;;6.80;2.20;;;;;;;15.17;61.63;100138.86;106646;1267;24217;-50
2022/06/24 02:13:29;;;;;;;9.40;2.30;;;;;;;15.09;61.79;100135.50;106556;1268;22546;-50
2022/06/24 02:16:02;;;;;;;9.10;2.30;;;;;;;15.08;61.65;100133.51;106553;1268;22476;-48
2022/06/24 02:18:34;;;;;;;8.50;2.70;;;;;;;15.07;61.64;100136.21;106597;1267;22531;-50
2022/06/24 02:21:06;;;;;;;6.80;2.30;;;;;;;15.05;61.96;100135.50;106590;1268;22584;-52
2022/06/24 02:23:38;;;;;;;8.50;2.60;;;;;;;15.03;62.08;100131.77;106577;1268;22527;-50
2022/06/24 02:26:10;;;;;;;15.20;4.30;;;;;;;15.01;62.17;100131.31;106584;1268;22470;-50
2022/06/24 02:28:41;;;;;;;7.30;2.60;;;;;;;15.00;62.05;100129.59;106531;1268;22564;-53
2022/06/24 02:31:13;;;;;;;7.20;2.50;;;;;;;14.98;62.36;100128.51;106636;1268;24438;-52
2022/06/24 02:33:46;;;;;;;10.00;2.80;;;;;;;14.95;62.29;100126.11;106502;1268;22519;-50
2022/06/24 02:36:18;;;;;;;9.20;3.30;;;;;;;14.92;62.51;100126.30;106507;1268;24749;-49
2022/06/24 02:38:50;;;;;;;8.90;2.80;;;;;;;14.88;62.50;100126.52;106575;1268;22665;-49
2022/06/24 02:41:22;;;;;;;11.00;2.50;;;;;;;14.85;62.88;100129.06;106564;1268;22633;-51
2022/06/24 02:43:54;;;;;;;8.60;2.60;;;;;;;14.82;63.04;100129.78;106565;1268;22531;-52
2022/06/24 02:46:28;;;;;;;10.50;2.50;;;;;;;14.79;62.94;100127.23;106485;1268;23201;-51
2022/06/24 02:49:01;;;;;;;11.20;3.00;;;;;;;14.79;62.91;100126.88;106576;1268;26552;-50
2022/06/24 02:51:32;;;;;;;11.50;3.00;;;;;;;14.78;63.00;100123.66;106542;1268;25740;-48
2022/06/24 02:54:04;;;;;;;9.10;2.70;;;;;;;14.76;63.03;100123.35;106579;1268;22529;-52
2022/06/24 02:56:37;;;;;;;8.70;3.20;;;;;;;14.75;63.27;100118.70;106619;1268;22525;-50
2022/06/24 02:59:09;;;;;;;11.80;3.60;;;;;;;14.70;63.57;100121.45;106555;1268;22539;-51
2022/06/24 03:01:40;;;;;;;13.20;4.10;;;;;;;14.65;63.48;100119.30;106647;1268;22547;-48
2022/06/24 03:04:11;;;;;;;17.40;4.90;;;;;;;14.62;63.91;100122.36;106814;1268;24265;-49
2022/06/24 03:06:43;;;;;;;10.30;3.70;;;;;;;14.56;63.96;100122.52;106547;1268;25311;-51
2022/06/24 03:09:14;;;;;;;12.40;3.90;;;;;;;14.53;64.03;100123.54;106544;1268;23160;-48
2022/06/24 03:11:46;;;;;;;9.50;3.90;;;;;;;14.52;63.89;100121.80;106577;1268;22881;-49
2022/06/24 03:14:18;;;;;;;10.10;3.60;;;;;;;14.51;64.14;100119.55;106663;1268;25473;-49
2022/06/24 03:16:50;;;;;;;13.30;5.40;;;;;;;14.49;64.10;100117.66;106571;1268;22558;-49
2022/06/24 03:19:22;;;;;;;14.10;6.50;;;;;;;14.47;64.29;100115.66;106601;1267;25350;-49
2022/06/24 03:21:53;;;;;;;13.80;5.30;;;;;;;14.43;64.63;100118.32;106549;1268;25216;-52
2022/06/24 03:24:25;;;;;;;11.30;3.80;;;;;;;14.40;64.57;100118.88;106618;1268;25431;-49
2022/06/24 03:26:57;;;;;;;12.30;3.70;;;;;;;14.38;64.56;100115.55;106584;1268;22633;-49
2022/06/24 03:29:29;;;;;;;12.20;3.60;;;;;;;14.38;64.95;100115.23;106543;1268;22633;-50
2022/06/24 03:32:00;;;;;;;11.70;2.80;;;;;;;14.38;65.30;100116.17;106712;1268;24486;-51
2022/06/24 03:34:32;;;;;;;8.30;2.40;;;;;;;14.35;65.47;100117.85;106684;1268;22560;-49
2022/06/24 03:37:04;;;;;;;9.40;3.40;;;;;;;14.34;65.70;100123.40;106659;1267;22955;-49
2022/06/24 03:39:36;;;;;;;10.00;3.20;;;;;;;14.34;65.61;100128.91;106612;1268;23633;-52
2022/06/24 03:42:09;;;;;;;13.20;4.00;;;;;;;14.34;65.90;100128.98;106781;1267;24218;-48
2022/06/24 03:44:41;;;;;;;12.30;4.70;;;;;;;14.37;65.85;100126.64;106650;1267;22541;-48
2022/06/24 03:47:12;;;;;;;15.80;4.70;;;;;;;14.39;66.10;100121.44;106855;1268;25234;-50
2022/06/24 03:49:44;;;;;;;12.10;4.40;;;;;;;14.42;65.90;100120.36;106644;1267;23216;-48
2022/06/24 03:52:15;;;;;;;10.10;3.20;;;;;;;14.45;66.33;100124.60;106686;1267;25952;-49
2022/06/24 03:54:47;;;;;;;15.10;4.40;;;;;;;14.48;66.45;100126.96;106706;1268;22838;-50
2022/06/24 03:57:19;;;;;;;11.80;3.70;;;;;;;14.52;66.57;100130.43;106764;1267;23128;-50
2022/06/24 03:59:50;;;;;;;10.80;3.50;;;;;;;14.58;66.70;100135.86;106737;1268;22669;-51
2022/06/24 04:02:23;;;;;;;10.10;3.10;;;;;;;14.66;66.96;100142.30;106694;1268;22548;-50
2022/06/24 04:04:54;;;;;;;8.60;2.80;;;;;;;14.73;67.12;100142.45;106625;1267;22522;-50
2022/06/24 04:07:26;;;;;;;12.70;3.20;;;;;;;14.81;67.26;100147.73;106634;1268;23653;-51
2022/06/24 04:09:58;;;;;;;8.80;2.90;;;;;;;14.89;67.04;100146.86;106705;1267;25827;-49
2022/06/24 04:12:31;;;;;;;8.90;3.40;;;;;;;14.96;67.11;100146.45;106548;1267;25226;-49
2022/06/24 04:15:14;;;;;;;10.10;4.00;;;;;;;15.05;67.53;100145.92;106494;1268;22547;-50
2022/06/24 04:17:46;;;;;;;9.60;3.20;;;;;;;15.15;67.59;100146.27;106791;1268;22742;-48
2022/06/24 04:20:19;;;;;;;9.70;2.80;;;;;;;15.24;67.96;100146.73;106589;1267;22522;-49
2022/06/24 04:22:50;;;;;;;10.90;2.80;;;;;;;15.33;67.98;100144.01;106668;1267;24271;-49
2022/06/24 04:25:23;;;;;;;10.60;3.30;;;;;;;15.44;67.80;100142.41;106519;1268;23985;-50
2022/06/24 04:27:54;;;;;;;11.00;3.20;;;;;;;15.55;68.01;100140.91;106404;1268;22540;-49
2022/06/24 04:30:27;;;;;;;12.20;3.50;;;;;;;15.68;67.91;100139.70;106431;1268;22527;-49
2022/06/24 04:32:58;;;;;;;10.30;3.10;;;;;;;15.80;68.05;100138.33;106460;1268;22598;-50
2022/06/24 04:35:30;;;;;;;12.10;3.40;;;;;;;15.91;67.89;100145.64;106625;1268;22788;-49
2022/06/24 04:38:02;;;;;;;10.60;3.10;;;;;;;16.01;68.17;100142.18;106543;1268;23968;-53
2022/06/24 04:40:34;;;;;;;10.40;3.00;;;;;;;16.12;68.12;100141.35;106506;1268;22544;-49
2022/06/24 04:43:07;;;;;;;12.40;3.30;;;;;;;16.25;68.01;100139.95;106616;1268;23424;-52
2022/06/24 04:45:39;;;;;;;9.80;2.60;;;;;;;16.41;68.17;100135.09;106518;1268;24453;-53
2022/06/24 04:48:13;;;;;;;9.90;2.70;;;;;;;16.54;67.66;100137.40;106589;1268;25225;-50
2022/06/24 04:50:46;;;;;;;8.70;2.80;;;;;;;16.66;67.69;100138.08;106532;1268;22552;-48
2022/06/24 04:53:18;;;;;;;10.70;2.80;;;;;;;16.79;67.51;100136.45;106586;1268;22540;-49
2022/06/24 04:55:50;;;;;;;12.80;3.40;;;;;;;16.94;67.43;100137.55;106442;1268;22545;-50
2022/06/24 04:58:22;;;;;;;10.00;2.60;;;;;;;17.10;67.46;100135.41;106437;1268;25286;-51
2022/06/24 05:00:54;;;;;;;11.60;3.70;;;;;;;17.26;67.00;100134.80;106241;1270;22555;-52
2022/06/24 05:03:28;;;;;;;7.70;2.50;;;;;;;17.43;66.92;100135.23;106465;1268;22538;-52
2022/06/24 05:05:59;;;;;;;11.20;3.10;;;;;;;17.59;66.57;100133.19;106443;1268;22679;-52
2022/06/24 05:08:31;;;;;;;8.90;2.70;;;;;;;17.73;66.33;100129.34;106632;1268;23949;-49
2022/06/24 05:11:03;;;;;;;8.70;2.50;;;;;;;17.88;66.16;100129.02;106534;1268;26570;-50
2022/06/24 05:13:35;;;;;;;9.00;2.30;;;;;;;18.04;66.08;100129.10;106633;1268;23017;-49
2022/06/24 05:16:08;;;;;;;6.30;2.40;;;;;;;18.24;65.87;100131.77;106707;1267;24365;-46
2022/06/24 05:18:40;;;;;;;9.60;2.20;;;;;;;18.38;65.45;100129.15;106975;1268;25363;-50
2022/06/24 05:21:11;;;;;;;13.60;3.30;;;;;;;18.54;65.17;100129.76;106500;1268;22550;-51
2022/06/24 05:23:44;;;;;;;10.30;2.80;;;;;;;18.71;64.79;100132.99;106590;1268;24335;-49
2022/06/24 05:26:15;;;;;;;8.30;2.40;;;;;;;18.84;64.59;100127.58;106474;1268;22547;-51
2022/06/24 05:28:47;;;;;;;9.80;2.80;;;;;;;18.98;64.12;100125.76;106503;1268;22509;-50
2022/06/24 05:31:19;;;;;;;9.50;2.70;;;;;;;19.11;63.96;100130.67;106403;1268;22692;-51
2022/06/24 05:33:50;;;;;;;8.40;2.60;;;;;;;19.25;63.69;100127.80;106539;1268;24220;-48
2022/06/24 05:36:23;;;;;;;9.00;2.90;;;;;;;19.34;63.40;100128.62;106434;1267;24711;-50
2022/06/24 05:38:57;;;;;;;11.20;2.50;;;;;;;19.46;63.23;100128.02;106443;1268;25601;-53
2022/06/24 05:41:28;;;;;;;8.10;2.00;;;;;;;19.59;62.67;100127.88;106704;1268;24195;-52
2022/06/24 05:44:01;;;;;;;9.70;2.50;;;;;;;19.72;62.42;100130.51;106343;1268;22932;-53
2022/06/24 05:46:33;;;;;;;10.20;2.40;;;;;;;19.83;62.13;100124.70;106438;1268;22779;-51
2022/06/24 05:49:04;;;;;;;7.90;2.20;;;;;;;20.01;61.87;100119.54;106577;1268;24214;-49
2022/06/24 05:51:37;;;;;;;8.70;2.40;;;;;;;20.16;61.47;100125.29;106489;1268;24713;-49
2022/06/24 05:56:59;;;;;;;9.10;2.00;;;;;;;20.46;60.68;100119.48;106479;1268;24238;-49
2022/06/24 05:59:30;;;;;;;9.90;1.70;;;;;;;20.61;60.03;100114.40;106652;1268;22543;-49
2022/06/24 06:02:02;;;;;;;9.30;1.80;;;;;;;20.76;59.74;100112.23;106562;1267;22598;-51
2022/06/24 06:04:35;;;;;;;13.40;2.50;;;;;;;20.93;59.03;100109.85;106522;1268;25430;-51
2022/06/24 06:07:09;;;;;;;8.30;1.70;;;;;;;21.06;58.77;100100.14;106479;1268;24249;-58
2022/06/24 06:09:41;;;;;;;13.50;1.70;;;;;;;21.20;58.31;100100.30;106335;1268;22794;-48
2022/06/24 06:12:13;;;;;;;11.20;1.90;;;;;;;21.33;57.90;100097.52;106460;1268;22793;-51
2022/06/24 06:14:45;;;;;;;8.10;1.60;;;;;;;21.48;57.37;100099.02;106621;1268;22556;-53
2022/06/24 06:17:17;;;;;;;9.70;1.70;;;;;;;21.62;56.72;100098.46;106728;1267;27242;-50
2022/06/24 06:19:48;;;;;;;8.30;1.80;;;;;;;21.74;56.29;100096.71;106399;1268;24328;-51
2022/06/24 06:22:20;;;;;;;6.70;1.30;;;;;;;21.85;55.67;100096.11;106404;1268;25353;-51
2022/06/24 06:24:52;;;;;;;9.20;1.40;;;;;;;21.98;54.86;100096.73;106500;1268;22611;-50
2022/06/24 06:27:24;;;;;;;7.90;1.60;;;;;;;22.10;54.29;100091.17;106585;1267;23019;-50
2022/06/24 06:29:55;;;;;;;9.70;1.70;;;;;;;22.22;54.01;100092.73;106786;1267;22985;-49
2022/06/24 06:32:27;;;;;;;14.10;1.80;;;;;;;22.35;53.29;100091.17;106398;1267;22533;-50
2022/06/24 06:34:58;;;;;;;5.80;1.10;;;;;;;22.48;52.70;100089.27;106462;1267;22535;-50
2022/06/24 06:37:30;;;;;;;8.80;1.30;;;;;;;22.57;52.08;100089.05;106331;1268;22536;-50
2022/06/24 06:40:03;;;;;;;7.70;1.50;;;;;;;22.68;51.65;100092.27;106395;1268;22999;-49
2022/06/24 06:42:35;;;;;;;8.10;1.40;;;;;;;22.80;51.29;100092.83;106692;1268;22527;-52
2022/06/24 06:45:09;;;;;;;8.50;1.10;;;;;;;22.89;50.32;100088.41;106427;1268;23078;-50
2022/06/24 06:47:42;;;;;;;10.00;1.20;;;;;;;22.98;49.60;100088.95;106401;1267;22984;-50
2022/06/24 06:50:14;;;;;;;6.10;1.40;;;;;;;23.06;49.41;100088.72;106168;1267;24216;-50
2022/06/24 06:52:46;;;;;;;9.10;1.20;;;;;;;23.15;49.33;100088.16;106965;1258;22537;-61
2022/06/24 06:55:18;;;;;;;6.50;1.50;;;;;;;23.24;49.07;100088.03;106488;1267;25184;-60
2022/06/24 06:57:51;;;;;;;5.10;1.30;;;;;;;23.30;48.74;100083.16;106306;1268;22559;-59
2022/06/24 07:00:23;;;;;;;6.20;1.40;;;;;;;23.36;49.01;100075.27;106021;1268;25508;-60
2022/06/24 07:02:54;;;;;;;6.50;1.40;;;;;;;23.43;48.58;100075.42;106109;1270;25525;-63
2022/06/24 07:05:26;;;;;;;6.30;1.50;;;;;;;23.50;48.57;100069.36;106192;1268;22574;-60
2022/06/24 07:07:58;;;;;;;5.60;1.20;;;;;;;23.59;48.58;100069.34;106077;1268;25415;-61
2022/06/24 07:10:30;;;;;;;5.70;1.10;;;;;;;23.72;48.20;100071.12;106291;1268;24437;-59
2022/06/24 07:13:02;;;;;;;4.60;1.10;;;;;;;23.83;47.99;100068.12;105963;1270;22548;-60
2022/06/24 07:15:34;;;;;;;4.90;1.20;;;;;;;23.94;47.38;100068.39;106765;1270;26549;-60
2022/06/24 07:18:07;;;;;;;6.00;1.20;;;;;;;24.02;47.08;100063.86;106193;1270;22532;-60
2022/06/24 07:20:41;;;;;;;8.80;1.60;;;;;;;24.11;46.85;100064.34;106105;1270;22529;-61
2022/06/24 07:23:13;;;;;;;5.60;1.20;;;;;;;24.21;46.27;100056.80;106056;1270;22524;-61
2022/06/24 07:25:45;;;;;;;4.30;1.00;;;;;;;24.29;46.16;100051.42;106211;1270;22544;-59
2022/06/24 07:28:17;;;;;;;11.90;1.40;;;;;;;24.40;45.75;100049.57;106111;1270;25317;-61
2022/06/24 07:30:48;;;;;;;5.10;1.00;;;;;;;24.50;45.15;100046.02;106053;1270;25431;-60
2022/06/24 07:33:22;;;;;;;6.60;1.00;;;;;;;24.60;44.87;100043.91;105920;1270;25253;-61
2022/06/24 07:35:58;;;;;;;4.90;0.90;;;;;;;24.68;44.43;100045.89;106057;1270;22675;-61
2022/06/24 07:38:32;;;;;;;6.60;1.00;;;;;;;24.79;43.82;100042.35;106170;1270;22547;-60
2022/06/24 07:41:07;;;;;;;2.80;0.80;;;;;;;24.89;43.00;100038.20;105870;1270;22987;-61
2022/06/24 07:43:41;;;;;;;6.20;1.00;;;;;;;24.97;42.97;100036.34;106155;1270;22850;-62
2022/06/24 07:46:14;;;;;;;5.70;1.00;;;;;;;25.05;42.64;100031.66;106120;1270;22834;-61
2022/06/24 07:48:46;;;;;;;2.40;0.80;;;;;;;25.14;42.71;100028.67;106015;1268;22727;-61
2022/06/24 07:51:21;;;;;;;4.80;1.10;;;;;;;25.23;42.45;100024.76;105899;1268;22592;-61
2022/06/24 07:53:53;;;;;;;5.20;0.90;;;;;;;25.32;42.17;100018.78;106285;1270;25970;-63
2022/06/24 07:59:15;;;;;;;3.20;0.90;;;;;;;25.46;41.51;100014.70;105887;1270;24298;-63
2022/06/24 08:01:48;;;;;;;5.80;0.90;;;;;;;25.54;41.10;100011.94;106304;1270;24256;-64
2022/06/24 08:04:20;;;;;;;7.90;1.00;;;;;;;25.62;40.83;100005.59;106004;1270;22527;-63
2022/06/24 08:06:53;;;;;;;3.30;0.80;;;;;;;25.73;41.09;100005.33;106002;1270;25653;-62
2022/06/24 08:09:30;;;;;;;7.10;1.10;;;;;;;25.82;40.79;100008.58;105886;1270;24365;-61
2022/06/24 08:12:03;;;;;;;7.40;1.00;;;;;;;25.85;40.30;100001.94;106178;1269;22528;-63
2022/06/24 08:14:35;;;;;;;5.40;1.10;;;;;;;25.86;39.69;100000.45;105999;1270;22524;-63
2022/06/24 08:17:09;;;;;;;3.40;0.80;;;;;;;25.94;40.02;100000.64;106037;1269;24399;-63
2022/06/24 08:19:40;;;;;;;3.90;0.80;;;;;;;26.04;39.86;99996.19;105944;1268;22547;-61
2022/06/24 08:22:12;;;;;;;3.20;0.80;;;;;;;26.13;39.42;99993.08;106036;1270;25306;-62
2022/06/24 08:24:44;;;;;;;4.20;1.00;;;;;;;26.18;39.37;99992.17;106040;1269;22595;-62
2022/06/24 08:27:16;;;;;;;4.20;0.90;;;;;;;26.24;39.33;99992.11;108828;1269;24381;-63
2022/06/24 08:29:47;;;;;;;4.00;0.80;;;;;;;26.31;39.04;99992.65;106265;1270;24079;-62
2022/06/24 08:32:19;;;;;;;4.40;0.90;;;;;;;26.41;38.99;99988.03;106048;1270;22688;-62
2022/06/24 08:34:51;;;;;;;4.30;0.80;;;;;;;26.50;38.93;99988.52;105953;1270;22664;-63
2022/06/24 08:37:23;;;;;;;5.10;1.00;;;;;;;26.57;38.78;99986.25;105956;1270;22591;-62
2022/06/24 08:39:54;;;;;;;5.80;0.80;;;;;;;26.67;38.44;99982.88;106377;1270;25255;-64
2022/06/24 08:42:29;;;;;;;5.70;1.00;;;;;;;26.75;38.19;99981.82;106098;1270;22601;-63
2022/06/24 08:45:02;;;;;;;3.40;0.80;;;;;;;26.80;37.97;99979.29;106023;1270;24216;-62
2022/06/24 08:47:35;;;;;;;3.30;0.80;;;;;;;26.85;37.75;99973.86;106206;1270;22608;-63
2022/06/24 08:50:11;;;;;;;4.50;0.60;;;;;;;26.91;37.34;99977.32;105918;1269;22713;-63
2022/06/24 08:52:50;;;;;;;3.70;1.00;;;;;;;26.93;37.18;99975.59;106269;1268;24273;-62
2022/06/24 08:55:23;;;;;;;3.80;0.70;;;;;;;26.97;37.28;99973.79;106087;1268;22644;-62
2022/06/24 08:57:56;;;;;;;6.50;1.00;;;;;;;27.03;37.60;99970.25;105975;1270;25343;-63
2022/06/24 09:00:28;;;;;;;7.50;1.10;;;;;;;27.15;37.85;99966.30;106112;1268;26641;-62
2022/06/24 09:02:59;;;;;;;4.40;0.90;;;;;;;27.23;37.58;99967.16;106205;1270;22547;-63
2022/06/24 09:05:32;;;;;;;7.40;0.90;;;;;;;27.24;37.53;99967.27;106018;1270;23842;-63
2022/06/24 09:08:09;;;;;;;10.10;1.20;;;;;;;27.23;37.35;99965.15;106233;1270;22610;-62
2022/06/24 09:10:43;;;;;;;7.80;1.20;;;;;;;27.29;37.51;99964.59;106087;1268;24437;-62
2022/06/24 09:13:22;;;;;;;5.90;1.00;;;;;;;27.37;37.12;99962.79;105965;1269;22556;-63
2022/06/24 09:15:57;;;;;;;11.50;1.20;;;;;;;27.41;37.07;99958.77;106257;1270;24204;-63
2022/06/24 09:18:30;;;;;;;8.10;1.20;;;;;;;27.41;37.19;99959.52;106060;1270;22584;-62
2022/06/24 09:21:02;;;;;;;4.80;0.80;;;;;;;27.41;37.24;99959.52;106308;1269;24717;-62
2022/06/24 09:23:51;;;;;;;4.40;0.80;;;;;;;27.44;36.93;99957.14;106333;1270;23753;-63
2022/06/24 09:26:31;;;;;;;4.20;1.00;;;;;;;27.48;36.93;99958.16;106188;1269;22556;-62
2022/06/24 09:29:04;;;;;;;3.90;0.80;;;;;;;27.56;36.69;99952.90;106020;1270;23972;-62
2022/06/24 09:31:38;;;;;;;6.00;0.90;;;;;;;27.64;36.23;99948.34;106107;1270;23858;-63
2022/06/24 09:34:12;;;;;;;4.80;0.90;;;;;;;27.70;35.67;99948.06;106078;1270;26514;-62
2022/06/24 09:36:45;;;;;;;5.20;0.90;;;;;;;27.69;35.29;99944.80;106411;1270;25356;-62
2022/06/24 09:39:18;;;;;;;6.90;0.90;;;;;;;27.67;35.63;99949.55;106022;1267;22563;-63
2022/06/24 09:41:53;;;;;;;6.10;0.90;;;;;;;27.69;35.94;99943.38;106536;1270;25697;-63
2022/06/24 09:44:25;;;;;;;7.00;1.60;;;;;;;27.75;35.87;99933.77;106334;1269;22574;-62
2022/06/24 09:47:08;;;;;;;6.30;1.00;;;;;;;27.78;35.28;99935.42;106345;1270;25264;-63
2022/06/24 09:49:41;;;;;;;5.60;0.80;;;;;;;27.79;35.19;99932.19;106247;1268;25376;-63
2022/06/24 09:52:14;;;;;;;8.20;1.10;;;;;;;27.86;35.00;99933.98;106202;1270;25364;-62
2022/06/24 09:54:46;;;;;;;5.50;1.10;;;;;;;27.92;35.06;99932.61;106281;1270;24288;-63
2022/06/24 09:57:19;;;;;;;10.20;1.10;;;;;;;28.03;34.77;99933.36;106134;1270;22616;-63
2022/06/24 10:02:43;;;;;;;3.50;0.90;;;;;;;28.24;34.52;99929.42;106183;1268;22707;-63
2022/06/24 10:05:19;;;;;;;6.30;1.00;;;;;;;28.29;34.36;99930.39;105908;1268;22537;-62
2022/06/24 10:07:51;;;;;;;8.80;0.90;;;;;;;28.34;34.26;99925.56;106239;1270;22562;-63
2022/06/24 10:10:24;;;;;;;5.20;0.80;;;;;;;28.43;33.90;99917.44;106103;1268;26301;-63
2022/06/24 10:13:01;;;;;;;4.10;0.80;;;;;;;28.51;34.00;99920.54;106278;1268;22615;-63
2022/06/24 10:15:34;;;;;;;4.10;1.00;;;;;;;28.59;34.07;99918.13;106166;1270;22848;-63
2022/06/24 10:18:11;;;;;;;3.30;0.80;;;;;;;28.65;33.55;99921.40;102012;1270;5439933;-63
2022/06/24 10:20:47;;;;;;;5.20;0.90;;;;;;;28.69;33.28;99918.09;106140;1270;22931;-63
2022/06/24 10:23:43;;;;;;;5.80;0.80;;;;;;;28.73;33.12;99911.05;106088;1270;25450;-63
2022/06/24 10:26:17;;;;;;;6.60;0.80;;;;;;;28.77;33.25;99910.08;106053;1268;25376;-64
2022/06/24 10:29:28;;;;;;;5.80;0.70;;;;;;;28.85;33.17;99912.56;106098;1268;22641;-63
2022/06/24 10:32:17;;;;;;;3.90;0.90;;;;;;;28.90;32.71;99902.70;106454;1268;25583;-63
2022/06/24 10:34:49;;;;;;;8.20;0.80;;;;;;;28.96;32.79;99901.55;106107;1268;25334;-64
2022/06/24 10:37:36;;;;;;;7.10;1.20;;;;;;;29.00;32.86;99895.95;106041;1268;25873;-63
2022/06/24 10:40:23;;;;;;;8.10;0.90;;;;;;;29.04;32.79;99891.76;106251;1270;25324;-63
2022/06/24 10:43:08;;;;;;;5.80;0.80;;;;;;;29.11;32.93;99900.70;106103;1268;24302;-63
2022/06/24 10:45:40;;;;;;;6.90;1.00;;;;;;;29.16;32.85;99890.42;106122;1268;22547;-63
2022/06/24 10:48:13;;;;;;;5.70;1.20;;;;;;;29.20;33.26;99889.15;106182;1268;22858;-63
2022/06/24 10:51:05;;;;;;;3.60;0.70;;;;;;;29.27;33.22;99886.54;106311;1266;22535;-63
2022/06/24 10:54:12;;;;;;;4.00;0.80;;;;;;;29.31;32.91;99880.63;106088;1268;25401;-65
2022/06/24 10:56:48;;;;;;;5.70;0.90;;;;;;;29.37;32.63;99881.20;106116;1270;22602;-63
2022/06/24 10:59:21;;;;;;;3.80;0.90;;;;;;;29.41;32.85;99876.96;105990;1269;22547;-63
2022/06/24 11:01:53;;;;;;;3.20;0.70;;;;;;;29.43;32.49;99876.58;106106;1268;22531;-63
2022/06/24 11:04:30;;;;;;;7.40;0.80;;;;;;;29.45;32.06;99876.27;105997;1268;22525;-63
2022/06/24 11:07:15;;;;;;;4.20;0.60;;;;;;;29.46;31.70;99874.91;106005;1268;24174;-63
2022/06/24 11:09:47;;;;;;;7.20;0.70;;;;;;;29.47;31.82;99873.64;106095;1270;22547;-63
2022/06/24 11:12:33;;;;;;;6.00;0.70;;;;;;;29.46;31.45;99872.61;106207;1268;25396;-63
2022/06/24 11:15:07;;;;;;;7.70;0.80;;;;;;;29.45;31.20;99867.02;106054;1271;22783;-63
2022/06/24 11:17:43;;;;;;;4.70;0.90;;;;;;;29.43;31.46;99866.61;106154;1269;25522;-63
2022/06/24 11:20:18;;;;;;;6.70;0.90;;;;;;;29.46;31.33;99865.70;106220;1268;22776;-63
2022/06/24 11:22:50;;;;;;;9.60;0.90;;;;;;;29.50;31.57;99862.89;106238;1270;22557;-63
2022/06/24 11:25:24;;;;;;;7.10;0.90;;;;;;;29.51;31.60;99855.48;105926;1270;22670;-63
2022/06/24 11:27:56;;;;;;;4.10;0.80;;;;;;;29.56;31.45;99852.06;106141;1268;25264;-63
2022/06/24 11:30:28;;;;;;;9.10;1.00;;;;;;;29.59;31.20;99852.97;106061;1268;22654;-63
2022/06/24 11:33:02;;;;;;;3.90;0.70;;;;;;;29.56;31.18;99846.74;106076;1268;22532;-63
2022/06/24 11:35:34;;;;;;;5.60;0.90;;;;;;;29.54;31.49;99840.14;106839;1268;25484;-63
2022/06/24 11:38:10;;;;;;;4.00;0.80;;;;;;;29.55;31.64;99838.21;106160;1268;24431;-64
2022/06/24 11:40:42;;;;;;;6.80;1.30;;;;;;;29.58;31.54;99831.64;106029;1268;24272;-63
2022/06/24 11:43:15;;;;;;;4.60;0.80;;;;;;;29.65;31.33;99833.36;105997;1268;22568;-64
2022/06/24 11:45:49;;;;;;;4.20;0.90;;;;;;;29.72;31.35;99834.95;106203;1268;22548;-64
2022/06/24 11:48:25;;;;;;;6.50;0.80;;;;;;;29.71;31.16;99830.16;106109;1268;25531;-64
2022/06/24 11:50:58;;;;;;;4.50;0.60;;;;;;;29.72;31.12;99829.02;106163;1268;22564;-64
2022/06/24 11:53:30;;;;;;;3.80;0.70;;;;;;;29.73;31.12;99828.73;106757;1268;22529;-63
2022/06/24 11:56:02;;;;;;;2.90;0.60;;;;;;;29.74;31.11;99832.66;106540;1270;22702;-63